createdAt,value
2017-11-17T00:00:38.245Z,0
2017-11-17T00:01:18.861Z,0
2017-11-17T00:01:59.464Z,0
2017-11-17T00:02:40.085Z,0
2017-11-17T00:03:20.691Z,0
2017-11-17T00:04:01.285Z,0
2017-11-17T00:04:41.878Z,0
2017-11-17T00:05:22.475Z,0
2017-11-17T00:06:03.057Z,0
2017-11-17T00:06:43.649Z,0
2017-11-17T00:07:24.248Z,0
2017-11-17T00:08:04.813Z,0
2017-11-17T00:08:45.428Z,0
2017-11-17T00:09:26.004Z,0
2017-11-17T00:10:06.606Z,0
2017-11-17T00:10:47.204Z,0
2017-11-17T00:11:27.776Z,0
2017-11-17T00:12:08.394Z,0
2017-11-17T00:12:48.995Z,0
2017-11-17T00:13:29.586Z,0
2017-11-17T00:14:10.190Z,0
2017-11-17T00:14:50.776Z,0
2017-11-17T00:15:31.355Z,0
2017-11-17T00:16:11.942Z,0
2017-11-17T00:16:52.538Z,0
2017-11-17T00:17:33.153Z,0
2017-11-17T00:18:13.763Z,0
2017-11-17T00:18:54.372Z,0
2017-11-17T00:19:34.967Z,0
2017-11-17T00:20:15.562Z,0
2017-11-17T00:20:56.154Z,0
2017-11-17T00:21:36.754Z,0
2017-11-17T00:22:17.350Z,0
2017-11-17T00:22:57.955Z,0
2017-11-17T00:23:38.557Z,0
2017-11-17T00:24:19.158Z,0
2017-11-17T00:24:59.828Z,0
2017-11-17T00:25:40.431Z,0
2017-11-17T00:26:21.020Z,0
2017-11-17T00:27:01.643Z,0
2017-11-17T00:27:42.210Z,0
2017-11-17T00:28:22.819Z,0
2017-11-17T00:29:03.416Z,0
2017-11-17T00:29:44.045Z,0
2017-11-17T00:30:24.655Z,0
2017-11-17T00:31:05.244Z,0
2017-11-17T00:31:45.845Z,0
2017-11-17T00:32:26.460Z,0
2017-11-17T00:33:07.025Z,0
2017-11-17T00:33:47.642Z,0
2017-11-17T00:34:28.237Z,0
2017-11-17T00:35:08.900Z,0
2017-11-17T00:35:49.554Z,0
2017-11-17T00:36:30.145Z,0
2017-11-17T00:37:10.746Z,0
2017-11-17T00:37:51.341Z,0
2017-11-17T00:38:31.922Z,0
2017-11-17T00:39:12.576Z,0
2017-11-17T00:39:53.140Z,0
2017-11-17T00:40:33.749Z,0
2017-11-17T00:41:14.367Z,0
2017-11-17T00:41:54.990Z,0
2017-11-17T00:42:35.583Z,0
2017-11-17T00:43:16.194Z,0
2017-11-17T00:43:56.801Z,0
2017-11-17T00:44:37.392Z,0
2017-11-17T00:45:17.976Z,0
2017-11-17T00:45:58.582Z,0
2017-11-17T00:46:39.187Z,0
2017-11-17T00:47:19.805Z,0
2017-11-17T00:48:00.408Z,0
2017-11-17T00:48:40.992Z,0
2017-11-17T00:49:21.612Z,0
2017-11-17T00:50:02.224Z,0
2017-11-17T00:50:42.791Z,0
2017-11-17T00:51:23.388Z,0
2017-11-17T00:52:03.982Z,0
2017-11-17T00:52:44.593Z,0
2017-11-17T00:53:25.171Z,0
2017-11-17T00:54:05.797Z,0
2017-11-17T00:54:46.383Z,0
2017-11-17T00:55:27.011Z,0
2017-11-17T00:56:07.624Z,0
2017-11-17T00:56:48.254Z,0
2017-11-17T00:57:28.842Z,0
2017-11-17T00:58:09.460Z,0
2017-11-17T00:58:50.055Z,0
2017-11-17T00:59:30.634Z,0
2017-11-17T01:00:11.235Z,0
2017-11-17T01:00:51.934Z,0
2017-11-17T01:01:32.697Z,0
2017-11-17T01:02:13.258Z,0
2017-11-17T01:02:54.333Z,0
2017-11-17T01:03:35.011Z,0
2017-11-17T01:04:15.807Z,0
2017-11-17T01:04:56.410Z,0
2017-11-17T01:05:37.027Z,0
2017-11-17T01:06:17.565Z,0
2017-11-17T01:06:58.178Z,0
2017-11-17T01:07:38.766Z,0
2017-11-17T01:08:19.354Z,0
2017-11-17T01:08:59.949Z,0
2017-11-17T01:09:40.530Z,0
2017-11-17T01:10:21.129Z,0
2017-11-17T01:11:01.757Z,0
2017-11-17T01:11:42.330Z,0
2017-11-17T01:12:22.908Z,0
2017-11-17T01:13:03.503Z,0
2017-11-17T01:13:44.116Z,0
2017-11-17T01:14:24.721Z,0
2017-11-17T01:15:05.330Z,0
2017-11-17T01:15:45.913Z,0
2017-11-17T01:16:26.482Z,0
2017-11-17T01:17:07.127Z,0
2017-11-17T01:17:47.715Z,0
2017-11-17T01:18:28.301Z,0
2017-11-17T01:19:08.924Z,0
2017-11-17T01:19:49.521Z,0
2017-11-17T01:20:30.132Z,0
2017-11-17T01:21:10.721Z,0
2017-11-17T01:21:51.331Z,0
2017-11-17T01:22:31.932Z,0
2017-11-17T01:23:12.508Z,0
2017-11-17T01:23:53.094Z,0
2017-11-17T01:24:33.660Z,0
2017-11-17T01:25:14.238Z,0
2017-11-17T01:25:54.832Z,0
2017-11-17T01:26:35.433Z,0
2017-11-17T01:27:16.032Z,0
2017-11-17T01:27:56.639Z,0
2017-11-17T01:28:37.239Z,0
2017-11-17T01:29:17.828Z,0
2017-11-17T01:29:58.401Z,0
2017-11-17T01:30:39.037Z,0
2017-11-17T01:31:19.608Z,0
2017-11-17T01:32:00.207Z,0
2017-11-17T01:32:40.807Z,0
2017-11-17T01:33:21.415Z,0
2017-11-17T01:34:02.031Z,0
2017-11-17T01:34:42.610Z,0
2017-11-17T01:35:23.208Z,0
2017-11-17T01:36:03.808Z,0
2017-11-17T01:36:44.414Z,0
2017-11-17T01:37:25.051Z,0
2017-11-17T01:38:05.611Z,0
2017-11-17T01:38:46.202Z,0
2017-11-17T01:39:26.801Z,0
2017-11-17T01:40:07.385Z,0
2017-11-17T01:40:47.971Z,0
2017-11-17T01:41:28.576Z,0
2017-11-17T01:42:09.168Z,0
2017-11-17T01:42:49.761Z,0
2017-11-17T01:43:30.351Z,0
2017-11-17T01:44:10.921Z,0
2017-11-17T01:44:54.305Z,0
2017-11-17T01:45:34.905Z,0
2017-11-17T01:46:15.483Z,0
2017-11-17T01:46:56.041Z,0
2017-11-17T01:47:36.638Z,0
2017-11-17T01:48:17.241Z,0
2017-11-17T01:48:57.800Z,0
2017-11-17T01:49:38.393Z,0
2017-11-17T01:50:19.014Z,0
2017-11-17T01:50:59.606Z,0
2017-11-17T01:51:40.182Z,0
2017-11-17T01:52:20.765Z,0
2017-11-17T01:53:01.337Z,0
2017-11-17T01:53:41.923Z,0
2017-11-17T01:54:22.497Z,0
2017-11-17T01:55:03.154Z,0
2017-11-17T01:55:43.767Z,0
2017-11-17T01:56:24.333Z,0
2017-11-17T01:57:04.934Z,0
2017-11-17T01:57:45.486Z,0
2017-11-17T01:58:26.065Z,0
2017-11-17T01:59:06.628Z,0
2017-11-17T01:59:47.200Z,0
2017-11-17T02:00:27.766Z,0
2017-11-17T02:01:08.342Z,0
2017-11-17T02:01:48.967Z,0
2017-11-17T02:02:29.544Z,0
2017-11-17T02:03:10.135Z,0
2017-11-17T02:03:50.703Z,0
2017-11-17T02:04:31.272Z,0
2017-11-17T02:05:11.847Z,0
2017-11-17T02:05:52.460Z,0
2017-11-17T02:06:33.037Z,0
2017-11-17T02:07:13.639Z,0
2017-11-17T02:07:54.226Z,0
2017-11-17T02:08:34.832Z,0
2017-11-17T02:09:15.434Z,0
2017-11-17T02:09:56.040Z,0
2017-11-17T02:10:36.609Z,0
2017-11-17T02:11:17.180Z,0
2017-11-17T02:11:57.788Z,0
2017-11-17T02:12:38.365Z,0
2017-11-17T02:13:18.960Z,0
2017-11-17T02:13:59.569Z,0
2017-11-17T02:14:40.138Z,0
2017-11-17T02:15:20.752Z,0
2017-11-17T02:16:01.356Z,0
2017-11-17T02:16:41.964Z,0
2017-11-17T02:17:22.570Z,0
2017-11-17T02:18:03.168Z,0
2017-11-17T02:18:43.758Z,0
2017-11-17T02:19:24.354Z,0
2017-11-17T02:20:04.945Z,0
2017-11-17T02:20:45.529Z,0
2017-11-17T02:21:26.119Z,0
2017-11-17T02:22:06.687Z,0
2017-11-17T02:22:47.271Z,0
2017-11-17T02:23:27.893Z,0
2017-11-17T02:24:08.492Z,0
2017-11-17T02:24:49.114Z,0
2017-11-17T02:25:29.685Z,0
2017-11-17T02:26:10.270Z,0
2017-11-17T02:26:50.850Z,0
2017-11-17T02:27:31.435Z,0
2017-11-17T02:28:12.041Z,0
2017-11-17T02:28:52.633Z,0
2017-11-17T02:29:33.217Z,0
2017-11-17T02:30:13.799Z,0
2017-11-17T02:30:54.380Z,0
2017-11-17T02:31:34.980Z,0
2017-11-17T02:32:15.614Z,0
2017-11-17T02:32:56.207Z,0
2017-11-17T02:33:36.777Z,0
2017-11-17T02:34:17.384Z,0
2017-11-17T02:34:57.966Z,0
2017-11-17T02:35:38.570Z,0
2017-11-17T02:36:19.142Z,0
2017-11-17T02:36:59.743Z,0
2017-11-17T02:37:40.317Z,0
2017-11-17T02:38:20.910Z,0
2017-11-17T02:39:01.505Z,0
2017-11-17T02:39:42.101Z,0
2017-11-17T02:40:22.708Z,0
2017-11-17T02:41:03.290Z,0
2017-11-17T02:41:43.897Z,0
2017-11-17T02:42:24.501Z,0
2017-11-17T02:43:05.091Z,0
2017-11-17T02:43:45.693Z,0
2017-11-17T02:44:26.274Z,0
2017-11-17T02:45:07.169Z,0
2017-11-17T02:45:47.652Z,0
2017-11-17T02:46:28.255Z,0
2017-11-17T02:47:08.868Z,0
2017-11-17T02:47:49.447Z,0
2017-11-17T02:48:30.036Z,0
2017-11-17T02:49:10.633Z,0
2017-11-17T02:49:51.215Z,0
2017-11-17T02:50:31.840Z,0
2017-11-17T02:51:12.418Z,0
2017-11-17T02:51:53.011Z,0
2017-11-17T02:52:33.602Z,0
2017-11-17T02:53:14.191Z,0
2017-11-17T02:53:54.800Z,0
2017-11-17T02:54:35.370Z,0
2017-11-17T02:55:15.978Z,0
2017-11-17T02:55:56.571Z,0
2017-11-17T02:56:37.176Z,0
2017-11-17T02:57:17.762Z,0
2017-11-17T02:57:58.353Z,0
2017-11-17T02:58:38.948Z,0
2017-11-17T02:59:19.536Z,0
2017-11-17T03:00:00.125Z,0
2017-11-17T03:00:40.698Z,0
2017-11-17T03:01:21.272Z,0
2017-11-17T03:02:01.866Z,0
2017-11-17T03:02:42.459Z,0
2017-11-17T03:03:23.065Z,0
2017-11-17T03:04:03.652Z,0
2017-11-17T03:04:44.235Z,0
2017-11-17T03:05:24.811Z,0
2017-11-17T03:06:05.435Z,0
2017-11-17T03:06:46.004Z,0
2017-11-17T03:07:26.602Z,0
2017-11-17T03:08:07.229Z,0
2017-11-17T03:08:47.817Z,0
2017-11-17T03:09:28.396Z,0
2017-11-17T03:10:08.992Z,0
2017-11-17T03:10:49.608Z,0
2017-11-17T03:11:30.152Z,0
2017-11-17T03:12:10.725Z,0
2017-11-17T03:12:51.318Z,0
2017-11-17T03:13:31.898Z,0
2017-11-17T03:14:12.461Z,0
2017-11-17T03:14:53.067Z,0
2017-11-17T03:15:33.653Z,0
2017-11-17T03:16:14.213Z,0
2017-11-17T03:16:54.790Z,0
2017-11-17T03:17:35.377Z,0
2017-11-17T03:18:15.970Z,0
2017-11-17T03:18:56.552Z,0
2017-11-17T03:19:37.135Z,0
2017-11-17T03:20:17.708Z,0
2017-11-17T03:20:58.307Z,0
2017-11-17T03:21:38.911Z,0
2017-11-17T03:22:19.601Z,0
2017-11-17T03:23:00.137Z,0
2017-11-17T03:23:40.727Z,0
2017-11-17T03:24:21.300Z,0
2017-11-17T03:25:01.888Z,0
2017-11-17T03:25:42.468Z,0
2017-11-17T03:26:23.052Z,0
2017-11-17T03:27:03.638Z,0
2017-11-17T03:27:44.206Z,0
2017-11-17T03:28:25.868Z,0
2017-11-17T03:29:06.466Z,0
2017-11-17T03:29:47.077Z,0
2017-11-17T03:30:27.667Z,0
2017-11-17T03:31:08.245Z,0
2017-11-17T03:31:48.831Z,0
2017-11-17T03:32:29.413Z,0
2017-11-17T03:33:09.979Z,0
2017-11-17T03:33:50.576Z,0
2017-11-17T03:34:31.146Z,0
2017-11-17T03:35:11.718Z,0
2017-11-17T03:35:52.935Z,0
2017-11-17T03:36:33.502Z,0
2017-11-17T03:37:14.084Z,0
2017-11-17T03:37:54.647Z,0
2017-11-17T03:38:35.213Z,0
2017-11-17T03:39:15.782Z,0
2017-11-17T03:39:56.353Z,0
2017-11-17T03:40:36.942Z,0
2017-11-17T03:41:17.535Z,0
2017-11-17T03:41:58.156Z,0
2017-11-17T03:42:38.753Z,0
2017-11-17T03:43:19.364Z,0
2017-11-17T03:43:59.980Z,0
2017-11-17T03:44:40.546Z,0
2017-11-17T03:45:21.133Z,0
2017-11-17T03:46:01.709Z,0
2017-11-17T03:46:42.318Z,0
2017-11-17T03:47:22.919Z,0
2017-11-17T03:48:03.504Z,0
2017-11-17T03:48:44.082Z,0
2017-11-17T03:49:24.668Z,0
2017-11-17T03:50:05.260Z,0
2017-11-17T03:50:45.828Z,0
2017-11-17T03:51:26.391Z,0
2017-11-17T03:52:06.963Z,0
2017-11-17T03:52:47.536Z,0
2017-11-17T03:53:28.104Z,0
2017-11-17T03:54:08.693Z,0
2017-11-17T03:54:49.270Z,0
2017-11-17T03:55:29.855Z,0
2017-11-17T03:56:10.434Z,0
2017-11-17T03:56:51.008Z,0
2017-11-17T03:57:31.591Z,0
2017-11-17T03:58:12.165Z,0
2017-11-17T03:58:52.741Z,0
2017-11-17T03:59:33.338Z,0
2017-11-17T04:00:13.908Z,0
2017-11-17T04:00:54.501Z,0
2017-11-17T04:01:35.079Z,0
2017-11-17T04:02:15.704Z,0
2017-11-17T04:02:56.257Z,0
2017-11-17T04:03:36.848Z,0
2017-11-17T04:04:17.416Z,0
2017-11-17T04:04:57.986Z,0
2017-11-17T04:05:38.575Z,0
2017-11-17T04:06:19.174Z,0
2017-11-17T04:06:59.751Z,0
2017-11-17T04:07:40.341Z,0
2017-11-17T04:08:20.953Z,0
2017-11-17T04:09:01.530Z,0
2017-11-17T04:09:42.098Z,0
2017-11-17T04:10:22.680Z,0
2017-11-17T04:11:03.260Z,0
2017-11-17T04:11:43.850Z,0
2017-11-17T04:12:24.428Z,0
2017-11-17T04:13:05.000Z,0
2017-11-17T04:13:45.566Z,0
2017-11-17T04:14:26.172Z,0
2017-11-17T04:15:06.731Z,0
2017-11-17T04:15:47.291Z,0
2017-11-17T04:16:27.869Z,0
2017-11-17T04:17:08.422Z,0
2017-11-17T04:17:49.033Z,0
2017-11-17T04:18:29.615Z,0
2017-11-17T04:19:10.196Z,0
2017-11-17T04:19:50.769Z,0
2017-11-17T04:20:31.332Z,0
2017-11-17T04:21:11.925Z,0
2017-11-17T04:21:52.495Z,0
2017-11-17T04:22:33.054Z,0
2017-11-17T04:23:13.651Z,0
2017-11-17T04:23:54.207Z,0
2017-11-17T04:24:34.822Z,0
2017-11-17T04:25:15.426Z,0
2017-11-17T04:25:55.994Z,0
2017-11-17T04:26:36.598Z,0
2017-11-17T04:27:17.173Z,0
2017-11-17T04:27:57.755Z,0
2017-11-17T04:28:38.345Z,0
2017-11-17T04:29:19.018Z,0
2017-11-17T04:29:59.628Z,0
2017-11-17T04:30:40.168Z,0
2017-11-17T04:31:20.747Z,0
2017-11-17T04:32:01.366Z,0
2017-11-17T04:32:41.943Z,0
2017-11-17T04:33:22.514Z,0
2017-11-17T04:34:03.091Z,0
2017-11-17T04:34:43.656Z,0
2017-11-17T04:35:24.226Z,0
2017-11-17T04:36:04.787Z,0
2017-11-17T04:36:45.696Z,0
2017-11-17T04:37:26.449Z,0
2017-11-17T04:38:07.158Z,0
2017-11-17T04:38:47.727Z,0
2017-11-17T04:39:28.315Z,0
2017-11-17T04:40:08.893Z,0
2017-11-17T04:40:49.471Z,0
2017-11-17T04:41:30.055Z,0
2017-11-17T04:42:10.625Z,0
2017-11-17T04:42:51.180Z,0
2017-11-17T04:43:31.765Z,0
2017-11-17T04:44:12.343Z,0
2017-11-17T04:44:52.915Z,0
2017-11-17T04:45:33.475Z,0
2017-11-17T04:46:14.065Z,0
2017-11-17T04:46:54.722Z,0
2017-11-17T04:47:35.253Z,0
2017-11-17T04:48:15.863Z,0
2017-11-17T04:48:56.429Z,0
2017-11-17T04:49:37.056Z,0
2017-11-17T04:50:17.680Z,0
2017-11-17T04:50:58.254Z,0
2017-11-17T04:51:38.827Z,0
2017-11-17T04:52:19.430Z,0
2017-11-17T04:53:00.010Z,0
2017-11-17T04:53:40.656Z,0
2017-11-17T04:54:21.257Z,0
2017-11-17T04:55:01.853Z,0
2017-11-17T04:55:42.452Z,0
2017-11-17T04:56:23.033Z,0
2017-11-17T04:57:03.637Z,0
2017-11-17T04:57:44.198Z,0
2017-11-17T04:58:24.764Z,0
2017-11-17T04:59:05.360Z,0
2017-11-17T04:59:45.926Z,0
2017-11-17T05:00:26.499Z,0
2017-11-17T05:01:07.835Z,0
2017-11-17T05:01:48.446Z,0
2017-11-17T05:02:29.029Z,0
2017-11-17T05:03:09.601Z,0
2017-11-17T05:03:50.187Z,0
2017-11-17T05:04:30.781Z,0
2017-11-17T05:05:11.363Z,0
2017-11-17T05:05:51.960Z,0
2017-11-17T05:06:32.517Z,0
2017-11-17T05:07:13.133Z,0
2017-11-17T05:07:53.753Z,0
2017-11-17T05:08:34.325Z,0
2017-11-17T05:09:14.889Z,0
2017-11-17T05:09:55.461Z,0
2017-11-17T05:10:36.050Z,0
2017-11-17T05:11:16.675Z,0
2017-11-17T05:11:57.228Z,0
2017-11-17T05:12:37.819Z,0
2017-11-17T05:13:18.358Z,0
2017-11-17T05:13:59.297Z,0
2017-11-17T05:14:39.925Z,0
2017-11-17T05:15:20.489Z,0
2017-11-17T05:16:01.062Z,0
2017-11-17T05:16:41.627Z,0
2017-11-17T05:17:22.211Z,0
2017-11-17T05:18:02.882Z,0
2017-11-17T05:18:43.457Z,0
2017-11-17T05:19:24.086Z,0
2017-11-17T05:20:04.746Z,0
2017-11-17T05:20:45.360Z,0
2017-11-17T05:21:26.050Z,0
2017-11-17T05:22:06.825Z,0
2017-11-17T05:22:47.411Z,0
2017-11-17T05:23:28.226Z,0
2017-11-17T05:24:08.847Z,0
2017-11-17T05:24:49.467Z,0
2017-11-17T05:25:30.119Z,0
2017-11-17T05:26:10.679Z,0
2017-11-17T05:26:51.262Z,0
2017-11-17T05:27:31.973Z,0
2017-11-17T05:28:12.557Z,0
2017-11-17T05:28:53.187Z,0
2017-11-17T05:29:34.558Z,0
2017-11-17T05:30:15.273Z,0
2017-11-17T05:30:55.953Z,0
2017-11-17T05:31:36.554Z,0
2017-11-17T05:32:17.383Z,0
2017-11-17T05:32:58.025Z,0
2017-11-17T05:33:38.653Z,0
2017-11-17T05:34:19.488Z,0
2017-11-17T05:35:00.163Z,0
2017-11-17T05:35:40.797Z,0
2017-11-17T05:36:21.572Z,0
2017-11-17T05:37:02.124Z,0
2017-11-17T05:37:42.797Z,0
2017-11-17T05:38:23.386Z,0
2017-11-17T05:39:03.993Z,0
2017-11-17T05:39:44.574Z,0
2017-11-17T05:40:25.161Z,0
2017-11-17T05:41:06.098Z,0
2017-11-17T05:41:46.700Z,0
2017-11-17T05:42:27.323Z,0
2017-11-17T05:43:07.885Z,0
2017-11-17T05:43:48.480Z,0
2017-11-17T05:44:29.064Z,0
2017-11-17T05:45:09.650Z,0
2017-11-17T05:45:50.245Z,0
2017-11-17T05:46:30.912Z,0
2017-11-17T05:47:11.521Z,0
2017-11-17T05:47:52.111Z,0
2017-11-17T05:48:32.701Z,0
2017-11-17T05:49:13.293Z,0
2017-11-17T05:49:53.868Z,0
2017-11-17T05:50:34.494Z,0
2017-11-17T05:51:15.085Z,0
2017-11-17T05:51:55.671Z,0
2017-11-17T05:52:36.271Z,0
2017-11-17T05:53:16.861Z,0
2017-11-17T05:53:57.447Z,0
2017-11-17T05:54:38.043Z,0
2017-11-17T05:55:18.611Z,0
2017-11-17T05:55:59.205Z,0
2017-11-17T05:56:39.779Z,0
2017-11-17T05:57:20.443Z,0
2017-11-17T05:58:01.005Z,0
2017-11-17T05:58:41.580Z,4
2017-11-17T05:59:22.197Z,4
2017-11-17T06:00:02.847Z,4
2017-11-17T06:00:43.447Z,0
2017-11-17T06:01:24.029Z,4
2017-11-17T06:02:04.575Z,4
2017-11-17T06:02:45.153Z,4
2017-11-17T06:03:25.712Z,4
2017-11-17T06:04:06.277Z,4
2017-11-17T06:04:46.849Z,4
2017-11-17T06:05:27.435Z,4
2017-11-17T06:06:08.008Z,4
2017-11-17T06:06:48.646Z,4
2017-11-17T06:07:29.262Z,4
2017-11-17T06:08:09.788Z,8
2017-11-17T06:08:50.361Z,4
2017-11-17T06:09:30.970Z,8
2017-11-17T06:10:11.549Z,12
2017-11-17T06:10:52.092Z,12
2017-11-17T06:11:32.671Z,16
2017-11-17T06:12:13.246Z,16
2017-11-17T06:12:53.901Z,20
2017-11-17T06:13:34.490Z,24
2017-11-17T06:14:15.076Z,20
2017-11-17T06:14:55.639Z,20
2017-11-17T06:15:36.211Z,28
2017-11-17T06:16:16.768Z,28
2017-11-17T06:16:57.359Z,28
2017-11-17T06:17:37.971Z,28
2017-11-17T06:18:18.552Z,32
2017-11-17T06:18:59.139Z,32
2017-11-17T06:19:39.721Z,28
2017-11-17T06:20:20.297Z,32
2017-11-17T06:21:00.934Z,32
2017-11-17T06:21:41.540Z,36
2017-11-17T06:22:22.136Z,40
2017-11-17T06:23:02.707Z,44
2017-11-17T06:23:43.405Z,44
2017-11-17T06:24:23.998Z,48
2017-11-17T06:25:04.588Z,48
2017-11-17T06:25:45.175Z,52
2017-11-17T06:26:25.735Z,52
2017-11-17T06:27:06.315Z,52
2017-11-17T06:27:46.888Z,60
2017-11-17T06:28:27.447Z,56
2017-11-17T06:29:08.125Z,56
2017-11-17T06:29:48.696Z,56
2017-11-17T06:30:29.285Z,60
2017-11-17T06:31:09.981Z,64
2017-11-17T06:31:50.576Z,68
2017-11-17T06:32:31.159Z,64
2017-11-17T06:33:11.725Z,64
2017-11-17T06:33:52.640Z,72
2017-11-17T06:34:33.234Z,84
2017-11-17T06:35:13.824Z,84
2017-11-17T06:35:54.572Z,96
2017-11-17T06:36:35.163Z,96
2017-11-17T06:37:15.906Z,124
2017-11-17T06:37:56.391Z,128
2017-11-17T06:38:37.107Z,156
2017-11-17T06:39:17.677Z,176
2017-11-17T06:39:58.251Z,192
2017-11-17T06:40:38.824Z,188
2017-11-17T06:41:19.385Z,212
2017-11-17T06:42:00.000Z,216
2017-11-17T06:42:40.565Z,228
2017-11-17T06:43:21.930Z,228
2017-11-17T06:44:02.229Z,284
2017-11-17T06:44:42.810Z,328
2017-11-17T06:45:23.395Z,344
2017-11-17T06:46:04.153Z,360
2017-11-17T06:46:44.751Z,376
2017-11-17T06:47:25.327Z,396
2017-11-17T06:48:05.930Z,408
2017-11-17T06:48:46.518Z,440
2017-11-17T06:49:27.129Z,464
2017-11-17T06:50:07.710Z,488
2017-11-17T06:50:48.333Z,504
2017-11-17T06:51:28.947Z,520
2017-11-17T06:52:09.522Z,540
2017-11-17T06:52:50.114Z,560
2017-11-17T06:53:30.699Z,580
2017-11-17T06:54:11.267Z,588
2017-11-17T06:54:51.845Z,592
2017-11-17T06:55:32.603Z,616
2017-11-17T06:56:13.709Z,640
2017-11-17T06:56:55.013Z,660
2017-11-17T06:57:35.634Z,676
2017-11-17T06:58:17.213Z,684
2017-11-17T06:58:58.095Z,704
2017-11-17T06:59:38.670Z,728
2017-11-17T07:00:19.263Z,744
2017-11-17T07:00:59.962Z,760
2017-11-17T07:01:40.667Z,776
2017-11-17T07:02:21.347Z,788
2017-11-17T07:03:02.128Z,792
2017-11-17T07:03:42.899Z,824
2017-11-17T07:04:23.654Z,868
2017-11-17T07:05:04.610Z,928
2017-11-17T07:05:45.227Z,1000
2017-11-17T07:06:26.011Z,980
2017-11-17T07:07:06.760Z,992
2017-11-17T07:07:47.512Z,1008
2017-11-17T07:08:29.357Z,1008
2017-11-17T07:09:09.208Z,1024
2017-11-17T07:09:49.847Z,1032
2017-11-17T07:10:30.444Z,1040
2017-11-17T07:11:11.181Z,1056
2017-11-17T07:11:51.889Z,1080
2017-11-17T07:12:32.520Z,1112
2017-11-17T07:13:13.260Z,1140
2017-11-17T07:13:58.404Z,1176
2017-11-17T07:14:43.951Z,1232
2017-11-17T07:15:32.584Z,1288
2017-11-17T07:16:13.827Z,1356
2017-11-17T07:16:54.438Z,1456
2017-11-17T07:17:35.008Z,1572
2017-11-17T07:18:15.591Z,1688
2017-11-17T07:18:56.163Z,1760
2017-11-17T07:19:36.971Z,1800
2017-11-17T07:20:17.603Z,1816
2017-11-17T07:20:58.257Z,1876
2017-11-17T07:21:38.976Z,1920
2017-11-17T07:22:19.796Z,1908
2017-11-17T07:23:03.581Z,1944
2017-11-17T07:23:44.167Z,1980
2017-11-17T07:24:24.742Z,2004
2017-11-17T07:25:05.337Z,2024
2017-11-17T07:25:48.215Z,2044
2017-11-17T07:26:29.221Z,2068
2017-11-17T07:27:09.948Z,2132
2017-11-17T07:27:50.561Z,2176
2017-11-17T07:28:31.160Z,2212
2017-11-17T07:29:11.735Z,2208
2017-11-17T07:29:52.341Z,2228
2017-11-17T07:30:33.284Z,2316
2017-11-17T07:31:13.865Z,2380
2017-11-17T07:31:54.460Z,2400
2017-11-17T07:32:35.026Z,2380
2017-11-17T07:33:15.599Z,2364
2017-11-17T07:33:57.613Z,2380
2017-11-17T07:34:38.523Z,2384
2017-11-17T07:35:19.157Z,2424
2017-11-17T07:35:59.760Z,2476
2017-11-17T07:36:40.358Z,2488
2017-11-17T07:37:20.928Z,2464
2017-11-17T07:38:01.511Z,2444
2017-11-17T07:38:42.089Z,2476
2017-11-17T07:39:22.660Z,2540
2017-11-17T07:40:03.259Z,2600
2017-11-17T07:40:43.810Z,2616
2017-11-17T07:41:24.375Z,2648
2017-11-17T07:42:04.960Z,2648
2017-11-17T07:42:45.535Z,2656
2017-11-17T07:43:26.162Z,2708
2017-11-17T07:44:06.720Z,2728
2017-11-17T07:44:47.322Z,2720
2017-11-17T07:45:27.889Z,2700
2017-11-17T07:46:08.467Z,2732
2017-11-17T07:46:49.083Z,2784
2017-11-17T07:47:29.671Z,2820
2017-11-17T07:48:10.255Z,2832
2017-11-17T07:48:50.847Z,2844
2017-11-17T07:49:31.476Z,2880
2017-11-17T07:50:12.091Z,2936
2017-11-17T07:50:52.684Z,2960
2017-11-17T07:51:33.317Z,2976
2017-11-17T07:52:13.917Z,3020
2017-11-17T07:52:54.539Z,3040
2017-11-17T07:53:35.152Z,3076
2017-11-17T07:54:15.800Z,3080
2017-11-17T07:54:56.355Z,3064
2017-11-17T07:55:36.948Z,3084
2017-11-17T07:56:17.567Z,3120
2017-11-17T07:56:58.157Z,3136
2017-11-17T07:57:38.782Z,3164
2017-11-17T07:58:19.375Z,3200
2017-11-17T07:58:59.959Z,3264
2017-11-17T07:59:40.554Z,3304
2017-11-17T08:00:21.154Z,3312
2017-11-17T08:01:01.753Z,3300
2017-11-17T08:01:42.336Z,3308
2017-11-17T08:02:22.912Z,3288
2017-11-17T08:03:03.516Z,3296
2017-11-17T08:03:44.124Z,3300
2017-11-17T08:04:24.721Z,3312
2017-11-17T08:05:05.331Z,3396
2017-11-17T08:05:45.932Z,3424
2017-11-17T08:06:26.517Z,3396
2017-11-17T08:07:07.115Z,3420
2017-11-17T08:07:47.739Z,3476
2017-11-17T08:08:28.333Z,3544
2017-11-17T08:09:08.931Z,3584
2017-11-17T08:09:49.532Z,3612
2017-11-17T08:10:30.124Z,3644
2017-11-17T08:11:10.735Z,3728
2017-11-17T08:11:51.333Z,3804
2017-11-17T08:12:31.968Z,3836
2017-11-17T08:13:12.544Z,4172
2017-11-17T08:13:53.174Z,6776
2017-11-17T08:14:33.754Z,11488
2017-11-17T08:15:14.364Z,16832
2017-11-17T08:15:54.947Z,19520
2017-11-17T08:16:35.579Z,19200
2017-11-17T08:17:16.150Z,19136
2017-11-17T08:17:56.785Z,21408
2017-11-17T08:18:37.389Z,23296
2017-11-17T08:19:17.989Z,23104
2017-11-17T08:19:58.560Z,20064
2017-11-17T08:20:39.153Z,15744
2017-11-17T08:21:19.787Z,13428
2017-11-17T08:22:00.379Z,17600
2017-11-17T08:22:40.979Z,24864
2017-11-17T08:23:21.588Z,30848
2017-11-17T08:24:02.160Z,31648
2017-11-17T08:24:42.768Z,27872
2017-11-17T08:25:23.353Z,27488
2017-11-17T08:26:03.946Z,17664
2017-11-17T08:26:44.542Z,24768
2017-11-17T08:27:25.112Z,23872
2017-11-17T08:28:05.701Z,21216
2017-11-17T08:28:46.290Z,17792
2017-11-17T08:29:26.882Z,16576
2017-11-17T08:30:07.469Z,17632
2017-11-17T08:30:48.066Z,19008
2017-11-17T08:31:28.646Z,19328
2017-11-17T08:32:09.222Z,19264
2017-11-17T08:32:49.801Z,18720
2017-11-17T08:33:30.385Z,17152
2017-11-17T08:34:10.972Z,16928
2017-11-17T08:34:51.589Z,20128
2017-11-17T08:35:32.172Z,23904
2017-11-17T08:36:12.739Z,26720
2017-11-17T08:36:53.331Z,27232
2017-11-17T08:37:33.921Z,26336
2017-11-17T08:38:14.490Z,23552
2017-11-17T08:38:55.064Z,18144
2017-11-17T08:39:35.678Z,18880
2017-11-17T08:40:16.273Z,20256
2017-11-17T08:40:56.843Z,23232
2017-11-17T08:41:37.453Z,26272
2017-11-17T08:42:18.043Z,26560
2017-11-17T08:42:58.635Z,27520
2017-11-17T08:43:39.229Z,30528
2017-11-17T08:44:19.797Z,32512
2017-11-17T08:45:00.422Z,31936
2017-11-17T08:45:41.047Z,30752
2017-11-17T08:46:21.631Z,27296
2017-11-17T08:47:02.205Z,22304
2017-11-17T08:47:42.789Z,18592
2017-11-17T08:48:23.369Z,18144
2017-11-17T08:49:03.934Z,18976
2017-11-17T08:49:44.538Z,21824
2017-11-17T08:50:25.122Z,18208
2017-11-17T08:51:05.739Z,18528
2017-11-17T08:51:46.317Z,17728
2017-11-17T08:52:26.912Z,16256
2017-11-17T08:53:07.541Z,16256
2017-11-17T08:53:48.111Z,16256
2017-11-17T08:54:28.702Z,17248
2017-11-17T08:55:09.329Z,16416
2017-11-17T08:55:49.938Z,11468
2017-11-17T08:56:30.528Z,14432
2017-11-17T08:57:11.116Z,15680
2017-11-17T08:57:51.739Z,16480
2017-11-17T08:58:32.309Z,16672
2017-11-17T08:59:12.919Z,16608
2017-11-17T08:59:53.516Z,17664
2017-11-17T09:00:34.126Z,18528
2017-11-17T09:01:14.727Z,20512
2017-11-17T09:01:55.310Z,21408
2017-11-17T09:02:35.899Z,23040
2017-11-17T09:03:16.492Z,23232
2017-11-17T09:03:57.086Z,23616
2017-11-17T09:04:37.670Z,25376
2017-11-17T09:05:18.257Z,23968
2017-11-17T09:05:58.878Z,24800
2017-11-17T09:06:39.520Z,20832
2017-11-17T09:07:20.088Z,19392
2017-11-17T09:08:00.681Z,20960
2017-11-17T09:08:41.273Z,22176
2017-11-17T09:09:21.936Z,22432
2017-11-17T09:10:02.534Z,20416
2017-11-17T09:10:43.126Z,17472
2017-11-17T09:11:23.897Z,14528
2017-11-17T09:12:04.494Z,13012
2017-11-17T09:12:45.076Z,15424
2017-11-17T09:13:25.679Z,17600
2017-11-17T09:14:06.257Z,19392
2017-11-17T09:14:46.837Z,20448
2017-11-17T09:15:27.436Z,18688
2017-11-17T09:16:08.067Z,15648
2017-11-17T09:16:48.673Z,13748
2017-11-17T09:17:29.265Z,14080
2017-11-17T09:18:09.881Z,16192
2017-11-17T09:18:50.480Z,18016
2017-11-17T09:19:31.086Z,18624
2017-11-17T09:20:11.690Z,18688
2017-11-17T09:20:52.279Z,17280
2017-11-17T09:21:32.864Z,15584
2017-11-17T09:22:13.472Z,13788
2017-11-17T09:22:54.065Z,12716
2017-11-17T09:23:34.676Z,11128
2017-11-17T09:24:15.283Z,6772
2017-11-17T09:24:55.871Z,10288
2017-11-17T09:25:36.476Z,10400
2017-11-17T09:26:17.089Z,8624
2017-11-17T09:26:57.688Z,9924
2017-11-17T09:27:38.281Z,9444
2017-11-17T09:28:18.924Z,8952
2017-11-17T09:28:59.484Z,8244
2017-11-17T09:29:40.110Z,7764
2017-11-17T09:30:20.675Z,7044
2017-11-17T09:31:01.282Z,6092
2017-11-17T09:31:41.878Z,6512
2017-11-17T09:32:22.525Z,6616
2017-11-17T09:33:03.137Z,6772
2017-11-17T09:33:43.725Z,6748
2017-11-17T09:34:24.342Z,6224
2017-11-17T09:35:04.986Z,6028
2017-11-17T09:35:45.580Z,5852
2017-11-17T09:36:26.197Z,5748
2017-11-17T09:37:06.833Z,5608
2017-11-17T09:37:47.401Z,5452
2017-11-17T09:38:28.123Z,5308